Time;durP1;ratioP1;P1;durP2;ratioP2;P2;SDS_P1;SDS_P2;PMS_P1;PMS_P2;Temp;Humidity;BMP_temperature;BMP_pressure;BME280_temperature;BME280_humidity;BME280_pressure;Samples;Min_cycle;Max_cycle;Signal;HPM_P1;HPM_P2
2022/01/10 00:00:46;;;;;;;13.63;6.17;;;3.50;99.90;;;;;;5080429;28;20443;-80
2022/01/10 00:03:13;;;;;;;8.07;5.30;;;3.50;99.90;;;;;;5080488;28;20074;-80
2022/01/10 00:05:40;;;;;;;7.73;5.80;;;3.50;99.90;;;;;;5078800;28;20053;-80
2022/01/10 00:08:08;;;;;;;6.67;5.53;;;3.60;99.90;;;;;;5079242;28;20045;-79
2022/01/10 00:10:36;;;;;;;13.67;6.47;;;3.60;99.90;;;;;;5078919;28;20519;-80
2022/01/10 00:13:03;;;;;;;10.00;5.53;;;3.60;99.90;;;;;;5079368;28;20117;-79
2022/01/10 00:15:29;;;;;;;8.80;5.43;;;3.60;99.90;;;;;;5079300;28;20048;-81
2022/01/10 00:17:56;;;;;;;11.23;5.33;;;3.60;99.90;;;;;;5078865;28;20040;-80
2022/01/10 00:20:23;;;;;;;9.93;6.50;;;3.60;99.90;;;;;;5079089;28;20045;-78
2022/01/10 00:22:50;;;;;;;9.70;5.77;;;3.60;99.90;;;;;;5079496;28;20098;-80
2022/01/10 00:25:19;;;;;;;11.07;6.60;;;3.70;99.90;;;;;;5078393;28;20115;-80
2022/01/10 00:27:49;;;;;;;11.07;5.07;;;3.70;99.90;;;;;;5078207;28;20459;-79
2022/01/10 00:30:16;;;;;;;10.10;6.30;;;3.70;99.90;;;;;;5077421;28;20049;-79
2022/01/10 00:32:45;;;;;;;8.03;5.07;;;3.60;99.90;;;;;;5079191;28;20040;-80
2022/01/10 00:35:13;;;;;;;10.43;5.23;;;3.60;99.90;;;;;;5078907;28;20072;-79
2022/01/10 00:37:42;;;;;;;8.10;5.00;;;3.70;99.90;;;;;;5078504;28;20044;-80
2022/01/10 00:40:11;;;;;;;9.40;5.33;;;3.70;99.90;;;;;;5079180;28;20686;-81
2022/01/10 00:42:38;;;;;;;9.20;5.37;;;3.70;99.90;;;;;;5079137;28;20078;-81
2022/01/10 00:45:17;;;;;;;16.23;6.70;;;3.70;99.90;;;;;;5077052;28;20467;-79
2022/01/10 00:47:47;;;;;;;13.53;7.17;;;3.70;99.90;;;;;;5076995;28;20076;-80
2022/01/10 00:50:14;;;;;;;9.00;5.90;;;3.60;99.90;;;;;;5077095;28;20044;-80
2022/01/10 00:52:41;;;;;;;11.20;6.27;;;3.60;99.90;;;;;;5077168;28;20053;-80
2022/01/10 00:55:08;;;;;;;8.13;5.10;;;3.70;99.90;;;;;;5076989;28;20340;-80
2022/01/10 00:57:35;;;;;;;14.73;6.70;;;3.80;99.90;;;;;;5077182;28;20049;-80
2022/01/10 01:00:02;;;;;;;11.43;6.97;;;3.90;99.90;;;;;;5076679;28;20044;-80
2022/01/10 01:02:32;;;;;;;11.47;5.70;;;3.80;99.90;;;;;;5077327;28;20511;-80
2022/01/10 01:04:59;;;;;;;17.83;7.40;;;3.80;99.90;;;;;;5075885;28;20044;-79
2022/01/10 01:07:26;;;;;;;8.50;5.97;;;3.90;99.90;;;;;;5077078;28;20044;-81
2022/01/10 01:10:04;;;;;;;9.17;5.77;;;3.90;99.90;;;;;;5078539;28;20048;-80
2022/01/10 01:12:41;;;;;;;10.13;6.57;;;3.80;99.90;;;;;;5079533;28;20055;-80
2022/01/10 01:15:18;;;;;;;8.50;5.50;;;3.80;99.90;;;;;;5078139;28;20055;-80
2022/01/10 01:17:58;;;;;;;13.43;5.87;;;3.80;99.90;;;;;;5078305;28;20048;-79
2022/01/10 01:20:41;;;;;;;11.10;5.70;;;3.70;99.90;;;;;;5078595;28;20056;-80
2022/01/10 01:25:54;;;;;;;9.47;5.13;;;3.80;99.90;;;;;;5078259;28;20059;-80
2022/01/10 01:28:21;;;;;;;8.30;5.03;;;3.80;99.90;;;;;;5078727;28;20056;-79
2022/01/10 01:30:47;;;;;;;16.47;6.43;;;3.80;99.90;;;;;;5079402;28;20052;-80
2022/01/10 01:33:16;;;;;;;13.10;7.00;;;3.80;99.90;;;;;;5079232;28;20050;-79
2022/01/10 01:35:43;;;;;;;9.87;4.50;;;3.80;99.90;;;;;;5081157;28;20090;-79
2022/01/10 01:38:10;;;;;;;14.57;4.97;;;3.90;99.90;;;;;;5082833;28;20044;-80
2022/01/10 01:40:43;;;;;;;8.93;4.93;;;4.00;99.90;;;;;;5085032;28;20044;-80
2022/01/10 01:43:10;;;;;;;12.13;5.63;;;4.00;99.90;;;;;;5091355;28;20059;-79
2022/01/10 01:45:39;;;;;;;9.13;5.23;;;3.90;99.90;;;;;;5094828;28;20045;-80
2022/01/10 01:48:07;;;;;;;12.90;6.40;;;3.90;99.90;;;;;;5093594;28;20055;-79
2022/01/10 01:50:36;;;;;;;13.00;6.97;;;3.90;99.90;;;;;;5093227;28;20044;-80
2022/01/10 01:53:03;;;;;;;6.70;4.30;;;3.90;99.90;;;;;;5078578;28;20044;-80
2022/01/10 01:55:30;;;;;;;10.00;4.87;;;3.90;99.90;;;;;;5074808;28;20064;-79
2022/01/10 01:57:56;;;;;;;8.00;5.47;;;3.90;99.90;;;;;;5075229;28;20454;-80
2022/01/10 02:00:24;;;;;;;11.67;6.40;;;3.80;99.90;;;;;;5075464;28;20041;-78
2022/01/10 02:02:51;;;;;;;8.87;5.40;;;3.80;99.90;;;;;;5075240;28;20064;-81
2022/01/10 02:05:18;;;;;;;8.87;5.37;;;3.80;99.90;;;;;;5075113;28;20074;-79
2022/01/10 02:07:46;;;;;;;10.37;6.13;;;3.80;99.90;;;;;;5078678;28;20049;-79
2022/01/10 02:10:13;;;;;;;11.27;6.17;;;3.80;99.90;;;;;;5079340;28;20066;-80
2022/01/10 02:12:40;;;;;;;13.20;6.47;;;3.80;99.90;;;;;;5078457;28;20048;-80
2022/01/10 02:15:08;;;;;;;11.73;5.93;;;3.80;99.90;;;;;;5078392;28;20052;-79
2022/01/10 02:17:37;;;;;;;8.30;6.00;;;3.80;99.90;;;;;;5078475;28;20045;-80
2022/01/10 02:20:08;;;;;;;10.03;6.37;;;3.80;99.90;;;;;;5080323;28;20044;-79
2022/01/10 02:22:37;;;;;;;13.13;6.20;;;3.80;99.90;;;;;;5079385;28;20048;-78
2022/01/10 02:25:05;;;;;;;14.30;6.50;;;3.80;99.90;;;;;;5078025;28;20090;-79
2022/01/10 02:27:32;;;;;;;11.63;6.70;;;3.80;99.90;;;;;;5078497;28;20079;-78
2022/01/10 02:29:58;;;;;;;10.30;6.53;;;3.80;99.90;;;;;;5079616;28;20098;-80
2022/01/10 02:32:25;;;;;;;14.47;6.53;;;3.90;99.90;;;;;;5079132;28;20044;-81
2022/01/10 02:34:52;;;;;;;8.27;6.13;;;3.80;99.90;;;;;;5080996;28;20048;-79
2022/01/10 02:37:34;;;;;;;13.73;6.53;;;3.80;99.90;;;;;;5083041;28;20122;-79
2022/01/10 02:40:03;;;;;;;13.67;6.37;;;3.90;99.90;;;;;;5081701;28;20098;-79
2022/01/10 02:42:30;;;;;;;13.17;5.73;;;3.90;99.90;;;;;;5077207;28;20558;-79
2022/01/10 02:44:57;;;;;;;9.97;6.23;;;3.90;99.90;;;;;;5076251;28;20463;-79
2022/01/10 02:47:27;;;;;;;13.13;6.80;;;3.90;99.90;;;;;;5076723;28;20475;-79
2022/01/10 02:49:54;;;;;;;10.47;7.00;;;3.90;99.90;;;;;;5075498;28;20045;-79
2022/01/10 02:52:20;;;;;;;8.17;5.77;;;3.90;99.90;;;;;;5076167;28;20068;-79
2022/01/10 02:54:48;;;;;;;19.37;8.80;;;3.90;99.90;;;;;;5075351;28;20597;-80
2022/01/10 02:57:15;;;;;;;11.30;6.17;;;4.00;99.90;;;;;;5076744;28;20044;-80
2022/01/10 02:59:42;;;;;;;11.63;6.67;;;4.00;99.90;;;;;;5075824;28;20048;-80
2022/01/10 03:02:10;;;;;;;10.00;5.43;;;4.00;99.90;;;;;;5076251;28;20051;-81
2022/01/10 03:04:37;;;;;;;11.27;5.97;;;4.00;99.90;;;;;;5076533;28;20064;-80
2022/01/10 03:07:04;;;;;;;14.70;7.47;;;4.00;99.90;;;;;;5076552;28;20485;-79
2022/01/10 03:09:31;;;;;;;18.80;12.27;;;4.00;99.90;;;;;;5075460;28;20071;-79
2022/01/10 03:11:59;;;;;;;15.13;7.47;;;4.00;99.90;;;;;;5074307;28;20117;-80
2022/01/10 03:14:25;;;;;;;12.00;7.30;;;4.00;99.90;;;;;;5073369;28;20081;-80
2022/01/10 03:16:52;;;;;;;14.43;7.13;;;4.00;99.90;;;;;;5074732;28;20114;-80
2022/01/10 03:19:19;;;;;;;8.47;7.13;;;4.10;99.90;;;;;;5074527;28;20075;-80
2022/01/10 03:21:45;;;;;;;17.00;6.33;;;4.10;99.90;;;;;;5075014;28;20106;-81
2022/01/10 03:24:12;;;;;;;7.73;4.37;;;4.10;99.90;;;;;;5078536;28;20044;-81
2022/01/10 03:26:39;;;;;;;8.13;5.67;;;4.00;99.90;;;;;;5079115;28;20049;-80
2022/01/10 03:29:07;;;;;;;10.00;6.43;;;4.00;99.90;;;;;;5079570;28;20048;-81
2022/01/10 03:31:33;;;;;;;12.20;6.27;;;4.00;99.90;;;;;;5079699;28;20416;-80
2022/01/10 03:34:00;;;;;;;18.50;7.37;;;4.10;99.90;;;;;;5079993;28;20090;-83
2022/01/10 03:36:26;;;;;;;13.30;5.43;;;4.10;99.90;;;;;;5078997;28;20053;-79
2022/01/10 03:38:53;;;;;;;17.97;8.43;;;4.10;99.90;;;;;;5079372;28;20045;-80
2022/01/10 03:41:20;;;;;;;12.33;5.97;;;4.10;99.90;;;;;;5080421;28;20040;-79
2022/01/10 03:43:47;;;;;;;16.47;7.37;;;4.10;99.90;;;;;;5078826;28;20060;-78
2022/01/10 03:46:15;;;;;;;12.10;6.33;;;4.10;99.90;;;;;;5079515;28;20048;-79
2022/01/10 03:48:41;;;;;;;7.53;5.60;;;4.10;99.90;;;;;;5079569;28;20052;-80
2022/01/10 03:51:08;;;;;;;16.63;6.87;;;4.00;99.90;;;;;;5079982;28;20086;-80
2022/01/10 03:53:36;;;;;;;10.37;6.43;;;4.10;99.90;;;;;;5079236;28;20052;-80
2022/01/10 03:56:03;;;;;;;14.30;6.77;;;4.10;99.90;;;;;;5080189;28;20044;-80
2022/01/10 03:58:30;;;;;;;16.10;7.20;;;4.10;99.90;;;;;;5082378;28;20055;-80
2022/01/10 04:00:56;;;;;;;14.17;7.13;;;4.10;99.90;;;;;;5081643;28;20112;-80
2022/01/10 04:03:24;;;;;;;15.87;8.17;;;4.10;99.90;;;;;;5080675;28;20094;-81
2022/01/10 04:05:51;;;;;;;10.57;6.33;;;4.10;99.90;;;;;;5079658;28;20045;-80
2022/01/10 04:08:18;;;;;;;12.23;6.50;;;4.10;99.90;;;;;;5079784;28;20052;-79
2022/01/10 04:10:45;;;;;;;8.97;6.50;;;4.10;99.90;;;;;;5079402;28;20374;-81
2022/01/10 04:13:12;;;;;;;24.67;7.90;;;4.10;99.90;;;;;;5079961;28;20477;-82
2022/01/10 04:15:38;;;;;;;20.57;7.83;;;4.00;99.90;;;;;;5079292;28;20040;-80
2022/01/10 04:18:07;;;;;;;17.07;7.80;;;4.10;99.90;;;;;;5079185;28;20044;-79
2022/01/10 04:20:36;;;;;;;11.33;7.10;;;4.10;99.90;;;;;;5079793;28;20497;-79
2022/01/10 04:23:02;;;;;;;16.10;7.33;;;4.00;99.90;;;;;;5081141;28;20051;-81
2022/01/10 04:25:29;;;;;;;13.87;6.63;;;4.10;99.90;;;;;;5079981;28;20093;-80
2022/01/10 04:27:56;;;;;;;19.20;7.23;;;4.00;99.90;;;;;;5079647;28;20550;-79
2022/01/10 04:30:23;;;;;;;15.93;8.03;;;4.00;99.90;;;;;;5077615;28;20479;-80
2022/01/10 04:32:49;;;;;;;18.63;6.97;;;4.00;99.90;;;;;;5076634;28;20041;-80
2022/01/10 04:35:16;;;;;;;17.83;7.87;;;4.00;99.90;;;;;;5075023;28;20045;-79
2022/01/10 04:37:44;;;;;;;16.60;6.63;;;4.00;99.90;;;;;;5077483;28;20052;-80
2022/01/10 04:40:12;;;;;;;12.83;7.10;;;4.00;99.90;;;;;;5076456;28;20086;-78
2022/01/10 04:42:38;;;;;;;17.47;7.67;;;4.00;99.90;;;;;;5080102;28;20049;-80
2022/01/10 04:45:06;;;;;;;19.93;8.50;;;4.10;99.90;;;;;;5084825;28;20045;-81
2022/01/10 04:47:33;;;;;;;13.87;7.90;;;4.00;99.90;;;;;;5081643;28;20082;-75
2022/01/10 04:50:17;;;;;;;15.83;7.83;;;4.10;99.90;;;;;;5073991;28;20041;-76
2022/01/10 04:52:46;;;;;;;12.17;7.40;;;4.10;99.90;;;;;;5074548;28;20040;-75
2022/01/10 04:55:13;;;;;;;14.97;6.70;;;4.10;99.90;;;;;;5073175;28;20570;-75
2022/01/10 04:57:39;;;;;;;12.53;7.37;;;4.10;99.90;;;;;;5073744;28;20071;-80
2022/01/10 05:00:08;;;;;;;11.57;7.20;;;4.10;99.90;;;;;;5077026;28;20044;-80
2022/01/10 05:02:35;;;;;;;11.53;6.60;;;4.00;99.90;;;;;;5076661;28;20044;-80
2022/01/10 05:05:02;;;;;;;16.97;7.87;;;4.00;99.90;;;;;;5074658;28;20056;-74
2022/01/10 05:07:28;;;;;;;10.90;6.77;;;4.00;99.90;;;;;;5077027;28;20558;-76
2022/01/10 05:09:57;;;;;;;10.67;7.00;;;4.00;99.90;;;;;;5078440;28;20056;-79
2022/01/10 05:12:27;;;;;;;15.60;7.40;;;4.00;99.90;;;;;;5079510;28;20045;-79
2022/01/10 05:14:54;;;;;;;16.40;7.27;;;4.00;99.90;;;;;;5079502;28;20044;-83
2022/01/10 05:17:22;;;;;;;15.93;8.10;;;3.90;99.90;;;;;;5076244;28;20567;-77
2022/01/10 05:19:49;;;;;;;19.70;6.17;;;3.90;99.90;;;;;;5075450;28;20078;-76
2022/01/10 05:22:16;;;;;;;15.13;7.93;;;3.90;99.90;;;;;;5074462;28;20480;-77
2022/01/10 05:24:43;;;;;;;18.73;6.50;;;3.90;99.90;;;;;;5076519;28;20070;-78
2022/01/10 05:27:11;;;;;;;9.90;7.20;;;3.80;99.90;;;;;;5078212;28;20045;-76
2022/01/10 05:29:37;;;;;;;13.83;8.27;;;3.80;99.90;;;;;;5076635;28;20052;-81
2022/01/10 05:32:05;;;;;;;11.53;7.07;;;3.70;99.90;;;;;;5077820;28;20067;-76
2022/01/10 05:34:31;;;;;;;13.50;6.40;;;3.80;99.90;;;;;;5076647;28;20071;-74
2022/01/10 05:36:58;;;;;;;16.17;7.00;;;3.80;99.90;;;;;;5074620;28;20052;-76
2022/01/10 05:39:25;;;;;;;16.73;8.30;;;3.90;99.90;;;;;;5075837;28;20447;-77
2022/01/10 05:41:52;;;;;;;18.13;8.53;;;3.90;99.90;;;;;;5077866;28;20044;-79
2022/01/10 05:44:20;;;;;;;22.67;7.93;;;3.90;99.90;;;;;;5074759;28;20058;-75
2022/01/10 05:46:47;;;;;;;14.47;7.97;;;3.90;99.90;;;;;;5074672;28;20044;-81
2022/01/10 05:49:15;;;;;;;17.63;10.60;;;3.90;99.90;;;;;;5076787;28;20131;-79
2022/01/10 05:51:42;;;;;;;22.07;8.13;;;3.90;99.90;;;;;;5075521;28;20135;-80
2022/01/10 05:54:09;;;;;;;11.37;7.43;;;3.90;99.90;;;;;;5079021;28;20052;-78
2022/01/10 05:56:35;;;;;;;17.60;8.27;;;3.90;99.90;;;;;;5074928;28;20078;-77
2022/01/10 05:59:03;;;;;;;21.93;11.27;;;3.90;99.90;;;;;;5075455;28;20055;-78
2022/01/10 06:01:31;;;;;;;14.20;6.37;;;3.90;99.90;;;;;;5075285;28;20459;-78
2022/01/10 06:03:58;;;;;;;15.07;8.57;;;4.00;99.90;;;;;;5077459;28;20074;-77
2022/01/10 06:06:25;;;;;;;12.23;7.30;;;4.00;99.90;;;;;;5078164;28;20049;-81
2022/01/10 06:08:51;;;;;;;13.77;6.73;;;4.00;99.90;;;;;;5079079;28;20049;-82
2022/01/10 06:11:18;;;;;;;20.33;9.03;;;3.90;99.90;;;;;;5078021;28;20048;-79
2022/01/10 06:13:45;;;;;;;16.07;7.57;;;3.90;99.90;;;;;;5077742;28;20041;-75
2022/01/10 06:16:13;;;;;;;17.60;7.00;;;3.90;99.90;;;;;;5077929;28;20048;-75
2022/01/10 06:18:42;;;;;;;17.13;7.77;;;3.90;99.90;;;;;;5080577;28;20519;-80
2022/01/10 06:21:18;;;;;;;13.13;7.97;;;3.90;99.90;;;;;;5078983;28;20048;-85
2022/01/10 06:23:45;;;;;;;22.43;8.40;;;3.90;99.90;;;;;;5085059;28;20035;-79
2022/01/10 06:26:12;;;;;;;12.80;7.63;;;3.90;99.90;;;;;;5083489;28;20080;-81
2022/01/10 06:28:41;;;;;;;14.23;7.63;;;3.90;99.90;;;;;;5084478;28;20066;-81
2022/01/10 06:31:08;;;;;;;13.30;7.47;;;3.90;99.90;;;;;;5084479;28;20068;-81
2022/01/10 06:33:39;;;;;;;14.50;7.07;;;3.90;99.90;;;;;;5084400;28;20390;-83
2022/01/10 06:36:09;;;;;;;13.25;7.70;;;3.90;99.90;;;;;;5081163;28;20052;-77
2022/01/10 06:38:39;;;;;;;23.97;10.40;;;3.90;99.90;;;;;;5082722;28;20048;-83
2022/01/10 06:41:06;;;;;;;15.47;9.30;;;3.90;99.90;;;;;;5077892;28;20504;-83
2022/01/10 06:43:33;;;;;;;15.37;8.17;;;3.90;99.90;;;;;;5075145;28;20409;-78
2022/01/10 06:45:59;;;;;;;12.50;7.87;;;3.90;99.90;;;;;;5073719;28;20076;-82
2022/01/10 06:48:26;;;;;;;16.20;8.33;;;4.00;99.90;;;;;;5075730;28;20412;-76
2022/01/10 06:50:53;;;;;;;14.97;8.73;;;4.00;99.90;;;;;;5073033;28;20454;-81
2022/01/10 06:53:21;;;;;;;16.47;7.60;;;3.90;99.90;;;;;;5074879;28;20044;-77
2022/01/10 06:55:47;;;;;;;19.30;8.37;;;3.90;99.90;;;;;;5074314;28;20083;-78
2022/01/10 06:58:14;;;;;;;13.27;9.40;;;3.90;99.90;;;;;;5077194;28;20094;-76
2022/01/10 07:00:42;;;;;;;14.10;8.07;;;4.00;99.90;;;;;;5076767;28;20451;-81
2022/01/10 07:03:09;;;;;;;9.13;6.70;;;4.00;99.90;;;;;;5078393;28;20053;-77
2022/01/10 07:05:35;;;;;;;23.40;8.80;;;4.00;99.90;;;;;;5078723;28;20060;-77
2022/01/10 07:08:03;;;;;;;17.20;6.93;;;4.00;99.90;;;;;;5081355;28;20048;-78
2022/01/10 07:10:31;;;;;;;12.90;7.10;;;3.90;99.90;;;;;;5077233;28;20122;-73
2022/01/10 07:12:58;;;;;;;15.30;8.83;;;4.00;99.90;;;;;;5075633;28;20466;-73
2022/01/10 07:15:26;;;;;;;16.93;7.60;;;4.00;99.90;;;;;;5075003;28;20045;-76
2022/01/10 07:17:53;;;;;;;14.73;8.27;;;4.10;99.90;;;;;;5075922;28;20044;-76
2022/01/10 07:20:21;;;;;;;14.73;9.60;;;4.20;99.90;;;;;;5076504;28;20075;-76
2022/01/10 07:22:48;;;;;;;16.37;8.00;;;4.20;99.90;;;;;;5077054;28;20075;-75
2022/01/10 07:25:15;;;;;;;21.10;12.30;;;4.20;99.90;;;;;;5076666;28;20045;-76
2022/01/10 07:27:43;;;;;;;23.00;11.03;;;4.20;99.90;;;;;;5076771;28;20102;-76
2022/01/10 07:30:10;;;;;;;19.37;10.27;;;4.30;99.90;;;;;;5077504;28;20052;-76
2022/01/10 07:32:37;;;;;;;23.63;10.13;;;4.10;99.90;;;;;;5077992;28;20044;-75
2022/01/10 07:35:04;;;;;;;21.23;10.17;;;4.00;99.90;;;;;;5076852;28;20045;-79
2022/01/10 07:37:33;;;;;;;22.80;9.33;;;4.00;99.90;;;;;;5086571;28;20048;-82
2022/01/10 07:40:00;;;;;;;20.83;10.57;;;4.00;99.90;;;;;;5098419;28;20067;-77
2022/01/10 07:42:26;;;;;;;14.70;8.80;;;3.90;99.90;;;;;;5088743;28;20052;-74
2022/01/10 07:44:54;;;;;;;31.27;13.57;;;4.00;99.90;;;;;;5091639;28;20074;-83
2022/01/10 07:47:21;;;;;;;42.40;14.37;;;4.00;99.90;;;;;;5096356;28;20045;-81
2022/01/10 07:49:48;;;;;;;16.77;8.63;;;4.00;99.90;;;;;;5094364;28;20094;-77
2022/01/10 07:52:15;;;;;;;22.53;11.27;;;3.90;99.90;;;;;;5077588;28;20045;-74
2022/01/10 07:54:41;;;;;;;25.43;11.93;;;4.00;99.90;;;;;;5080794;28;20098;-76
2022/01/10 07:57:08;;;;;;;20.20;10.50;;;4.20;99.90;;;;;;5075995;28;20051;-76
2022/01/10 07:59:35;;;;;;;23.63;9.40;;;4.20;99.90;;;;;;5079376;28;20055;-78
2022/01/10 08:02:03;;;;;;;13.20;7.80;;;4.20;99.90;;;;;;5080974;28;20044;-75
2022/01/10 08:04:29;;;;;;;18.30;9.13;;;4.20;99.90;;;;;;5079195;28;20075;-77
2022/01/10 08:06:56;;;;;;;16.07;8.43;;;4.20;99.90;;;;;;5079149;28;20045;-76
2022/01/10 08:09:23;;;;;;;18.83;7.87;;;4.20;99.90;;;;;;5075346;28;20044;-80
2022/01/10 08:11:50;;;;;;;12.80;8.63;;;4.20;99.90;;;;;;5079832;28;20056;-82
2022/01/10 08:14:17;;;;;;;16.23;7.37;;;4.30;99.90;;;;;;5077232;28;20127;-79
2022/01/10 08:16:43;;;;;;;14.53;7.77;;;4.30;99.90;;;;;;5077061;28;20048;-78
2022/01/10 08:19:11;;;;;;;15.93;7.20;;;4.10;99.90;;;;;;5076539;28;20489;-79
2022/01/10 08:21:38;;;;;;;18.50;7.97;;;4.00;99.90;;;;;;5076653;28;20067;-78
2022/01/10 08:24:05;;;;;;;17.20;8.77;;;4.00;99.90;;;;;;5075780;28;20045;-80
2022/01/10 08:26:32;;;;;;;11.10;6.80;;;4.00;99.90;;;;;;5076846;28;20049;-78
2022/01/10 08:28:59;;;;;;;17.57;8.23;;;4.10;99.90;;;;;;5078058;28;20044;-79
2022/01/10 08:31:25;;;;;;;15.17;9.03;;;4.10;99.90;;;;;;5077708;28;20045;-79
2022/01/10 08:33:52;;;;;;;11.63;7.63;;;4.20;99.90;;;;;;5075311;28;20044;-76
2022/01/10 08:36:20;;;;;;;14.00;7.00;;;4.20;99.90;;;;;;5077097;28;20052;-79
2022/01/10 08:38:47;;;;;;;18.37;9.60;;;4.20;99.90;;;;;;5081784;28;20110;-83
2022/01/10 08:41:13;;;;;;;18.27;8.03;;;4.30;99.90;;;;;;5081654;28;20040;-81
2022/01/10 08:43:40;;;;;;;14.60;8.57;;;4.40;99.90;;;;;;5076553;28;20135;-79
2022/01/10 08:46:07;;;;;;;17.13;7.33;;;4.50;99.90;;;;;;5079303;28;20056;-84
2022/01/10 08:48:33;;;;;;;14.03;8.50;;;4.40;99.90;;;;;;5080249;28;20048;-80
2022/01/10 08:51:00;;;;;;;15.33;8.63;;;4.50;99.90;;;;;;5079988;28;20052;-78
2022/01/10 08:53:28;;;;;;;18.23;7.80;;;4.50;99.90;;;;;;5077593;28;20067;-80
2022/01/10 08:55:55;;;;;;;16.50;9.07;;;4.60;99.90;;;;;;5073864;28;20106;-76
2022/01/10 08:58:22;;;;;;;14.17;8.43;;;4.60;99.90;;;;;;5075173;28;20562;-78
2022/01/10 09:00:49;;;;;;;15.73;8.13;;;4.60;99.90;;;;;;5074735;28;20079;-75
2022/01/10 09:03:16;;;;;;;15.57;7.30;;;4.50;99.90;;;;;;5074311;28;20044;-78
2022/01/10 09:05:42;;;;;;;12.47;6.90;;;4.50;99.90;;;;;;5073553;28;20126;-76
2022/01/10 09:08:09;;;;;;;15.97;8.30;;;4.60;99.90;;;;;;5074090;28;20048;-75
2022/01/10 09:10:37;;;;;;;21.83;8.63;;;4.50;99.90;;;;;;5074421;28;20040;-77
2022/01/10 09:13:04;;;;;;;17.83;8.97;;;4.60;99.90;;;;;;5074792;28;20044;-79
2022/01/10 09:15:32;;;;;;;16.20;9.77;;;4.50;99.90;;;;;;5073889;28;20097;-75
2022/01/10 09:17:59;;;;;;;12.63;10.03;;;4.50;99.90;;;;;;5076755;28;20048;-83
2022/01/10 09:20:25;;;;;;;19.40;10.77;;;4.40;99.90;;;;;;5078623;28;20072;-76
2022/01/10 09:22:52;;;;;;;20.77;10.27;;;4.40;99.90;;;;;;5076661;28;20049;-77
2022/01/10 09:25:19;;;;;;;19.10;8.87;;;4.40;99.90;;;;;;5075403;28;20070;-76
2022/01/10 09:27:47;;;;;;;16.50;9.07;;;4.40;99.90;;;;;;5079767;28;20056;-79
2022/01/10 09:30:13;;;;;;;26.17;9.13;;;4.40;99.90;;;;;;5079536;28;20044;-79
2022/01/10 09:32:40;;;;;;;20.63;9.43;;;4.30;99.90;;;;;;5081760;28;20110;-80
2022/01/10 09:35:08;;;;;;;13.27;8.60;;;4.40;99.90;;;;;;5082035;28;20052;-83
2022/01/10 09:37:35;;;;;;;20.00;10.07;;;4.40;99.90;;;;;;5082295;28;20281;-84
2022/01/10 09:40:02;;;;;;;19.30;9.57;;;4.50;99.90;;;;;;5083429;28;20075;-82
2022/01/10 09:42:30;;;;;;;26.10;11.30;;;4.40;99.90;;;;;;5081351;28;20044;-79
2022/01/10 09:44:58;;;;;;;21.37;9.80;;;4.50;99.90;;;;;;5080161;28;20044;-78
2022/01/10 09:47:25;;;;;;;25.13;10.20;;;4.50;99.90;;;;;;5075531;28;20041;-80
2022/01/10 09:49:51;;;;;;;16.83;8.80;;;4.40;99.90;;;;;;5075497;28;20064;-76
2022/01/10 09:52:18;;;;;;;22.50;9.63;;;4.40;99.90;;;;;;5075098;28;20044;-77
2022/01/10 09:54:45;;;;;;;19.33;9.07;;;4.40;99.90;;;;;;5074225;28;20493;-77
2022/01/10 09:57:12;;;;;;;20.27;9.77;;;4.30;99.90;;;;;;5074844;28;20052;-77
2022/01/10 09:59:40;;;;;;;28.33;12.73;;;4.30;99.90;;;;;;5075543;28;20045;-77
2022/01/10 10:02:08;;;;;;;26.37;11.90;;;4.40;99.90;;;;;;5077255;28;20044;-79
2022/01/10 10:04:37;;;;;;;27.53;11.70;;;4.40;99.90;;;;;;5075442;28;20621;-79
2022/01/10 10:07:06;;;;;;;31.03;10.57;;;4.50;99.90;;;;;;5078114;28;20056;-79
2022/01/10 10:09:33;;;;;;;24.20;10.77;;;4.60;99.90;;;;;;5075315;28;20051;-78
2022/01/10 10:12:00;;;;;;;19.93;10.00;;;4.60;99.90;;;;;;5072859;28;20048;-74
2022/01/10 10:14:27;;;;;;;19.27;8.13;;;4.50;99.90;;;;;;5072073;28;20045;-74
2022/01/10 10:16:57;;;;;;;22.17;10.57;;;4.50;99.90;;;;;;5076321;28;20051;-76
2022/01/10 10:19:27;;;;;;;28.03;11.67;;;4.50;99.90;;;;;;5073102;28;20048;-73
2022/01/10 10:21:56;;;;;;;22.93;11.13;;;4.50;99.90;;;;;;5077077;28;20090;-82
2022/01/10 10:24:23;;;;;;;26.93;11.47;;;4.50;99.90;;;;;;5077524;28;20044;-79
2022/01/10 10:26:51;;;;;;;28.33;11.63;;;4.50;99.90;;;;;;5076374;28;20048;-78
2022/01/10 10:29:19;;;;;;;18.50;9.57;;;4.50;99.90;;;;;;5077023;28;20070;-80
2022/01/10 10:31:48;;;;;;;26.40;11.97;;;4.50;99.90;;;;;;5079047;28;20493;-76
2022/01/10 10:34:19;;;;;;;27.67;10.97;;;4.50;99.90;;;;;;5088075;28;20534;-78
2022/01/10 10:36:58;;;;;;;;;;;4.50;99.90;;;;;;5085445;28;20064;-78
2022/01/10 10:39:27;;;;;;;21.37;11.60;;;4.50;99.90;;;;;;5088549;28;20002;-81
2022/01/10 10:41:55;;;;;;;22.63;10.77;;;4.60;99.90;;;;;;5084176;28;20105;-78
2022/01/10 10:44:24;;;;;;;21.60;10.37;;;4.70;99.90;;;;;;5086242;28;20072;-80
2022/01/10 10:46:52;;;;;;;26.27;11.03;;;4.90;99.90;;;;;;5082874;28;20048;-76
2022/01/10 10:49:20;;;;;;;25.47;11.23;;;5.00;99.90;;;;;;5079429;28;20052;-73
2022/01/10 10:51:51;;;;;;;29.37;10.20;;;5.10;99.90;;;;;;5078847;28;20060;-73
2022/01/10 10:54:19;;;;;;;29.00;11.57;;;5.00;99.90;;;;;;5079092;28;20454;-76
2022/01/10 10:56:46;;;;;;;28.17;12.50;;;5.10;99.90;;;;;;5078602;28;20049;-74
2022/01/10 10:59:14;;;;;;;23.10;9.73;;;5.10;99.90;;;;;;5079508;28;20090;-83
2022/01/10 11:01:45;;;;;;;26.80;12.27;;;5.10;99.90;;;;;;5089256;28;20106;-80
2022/01/10 11:04:12;;;;;;;23.15;12.15;;;5.20;99.90;;;;;;5089501;28;20055;-79
2022/01/10 11:06:40;;;;;;;22.63;10.03;;;5.10;99.90;;;;;;5083838;28;20507;-77
2022/01/10 11:09:12;;;;;;;23.57;12.40;;;5.10;99.90;;;;;;5081027;28;20049;-77
2022/01/10 11:11:39;;;;;;;27.67;11.43;;;5.00;99.90;;;;;;5082024;28;20072;-77
2022/01/10 11:14:09;;;;;;;32.03;14.63;;;5.00;99.90;;;;;;5080811;28;20041;-77
2022/01/10 11:16:37;;;;;;;24.20;13.13;;;4.90;99.90;;;;;;5081432;28;20067;-78
2022/01/10 11:19:11;;;;;;;28.27;12.03;;;4.90;99.90;;;;;;5082911;28;20048;-79
2022/01/10 11:21:39;;;;;;;25.03;13.30;;;4.80;99.90;;;;;;5080140;28;20041;-78
2022/01/10 11:24:08;;;;;;;28.17;12.70;;;4.90;99.90;;;;;;5080276;28;20112;-78
2022/01/10 11:26:39;;;;;;;35.60;14.63;;;4.80;99.90;;;;;;5083694;28;20048;-78
2022/01/10 11:29:08;;;;;;;28.98;12.75;;;4.80;99.90;;;;;;5081979;28;20412;-77
2022/01/10 11:31:37;;;;;;;27.17;11.90;;;4.80;99.90;;;;;;5084836;28;20135;-77
2022/01/10 11:34:04;;;;;;;29.40;13.70;;;4.80;99.90;;;;;;5084989;28;20052;-78
2022/01/10 11:36:31;;;;;;;27.07;11.83;;;4.70;99.90;;;;;;5082976;28;20055;-77
2022/01/10 11:39:00;;;;;;;29.90;13.67;;;4.70;99.90;;;;;;5084331;28;20146;-77
2022/01/10 11:41:30;;;;;;;28.10;12.73;;;4.60;99.90;;;;;;5082688;28;20489;-78
2022/01/10 11:44:03;;;;;;;28.60;13.67;;;4.60;99.90;;;;;;5079388;28;20516;-77
2022/01/10 11:46:37;;;;;;;31.17;14.57;;;4.70;99.90;;;;;;5079115;28;20083;-77
2022/01/10 11:49:16;;;;;;;33.70;14.13;;;4.80;99.90;;;;;;5084548;28;20048;-79
2022/01/10 11:51:45;;;;;;;31.00;14.17;;;4.90;99.90;;;;;;5079516;28;20070;-78
2022/01/10 11:54:15;;;;;;;32.70;14.20;;;4.80;99.90;;;;;;5078658;28;20055;-76
2022/01/10 11:56:45;;;;;;;29.87;15.73;;;4.80;99.90;;;;;;5078061;28;20066;-76
2022/01/10 11:59:18;;;;;;;32.53;17.60;;;4.70;99.90;;;;;;5078619;28;20044;-78
2022/01/10 12:01:48;;;;;;;38.20;17.17;;;4.70;99.90;;;;;;5077768;28;20044;-75
2022/01/10 12:04:14;;;;;;;35.87;16.47;;;4.90;99.90;;;;;;5076420;28;20048;-75
2022/01/10 12:06:42;;;;;;;34.33;16.40;;;4.90;99.90;;;;;;5075984;28;20052;-77
2022/01/10 12:09:10;;;;;;;33.73;15.80;;;5.00;99.90;;;;;;5076655;28;20049;-76
2022/01/10 12:11:39;;;;;;;35.13;16.50;;;5.10;99.90;;;;;;5060917;28;20045;-79
2022/01/10 12:14:08;;;;;;;30.10;15.50;;;5.10;99.90;;;;;;5083290;28;20040;-80
2022/01/10 12:16:38;;;;;;;31.10;14.87;;;5.00;99.90;;;;;;5082670;28;20450;-81
2022/01/10 12:19:06;;;;;;;29.57;14.20;;;5.00;99.90;;;;;;5083459;28;20048;-78
2022/01/10 12:21:34;;;;;;;36.13;16.97;;;5.10;99.90;;;;;;5088681;28;20135;-81
2022/01/10 12:24:20;;;;;;;46.13;20.60;;;5.10;99.90;;;;;;5089436;28;20053;-82
2022/01/10 12:26:52;;;;;;;43.80;20.00;;;5.10;99.90;;;;;;5085517;28;20045;-82
2022/01/10 12:29:24;;;;;;;38.40;19.13;;;5.10;99.90;;;;;;5089905;28;20052;-81
2022/01/10 12:31:54;;;;;;;34.90;18.08;;;5.00;99.90;;;;;;5087230;28;20044;-81
2022/01/10 12:34:21;;;;;;;38.33;17.40;;;5.00;99.90;;;;;;5085206;28;20060;-82
2022/01/10 12:36:48;;;;;;;43.33;19.30;;;4.90;99.90;;;;;;5081266;28;20036;-79
2022/01/10 12:39:20;;;;;;;36.37;18.33;;;4.90;99.90;;;;;;5084236;28;20041;-80
2022/01/10 12:41:48;;;;;;;32.93;15.43;;;4.80;99.90;;;;;;5083757;28;20080;-81
2022/01/10 12:44:15;;;;;;;35.80;16.37;;;4.80;99.90;;;;;;5084029;28;20052;-80
2022/01/10 12:46:43;;;;;;;29.20;15.60;;;4.70;99.90;;;;;;5078985;28;20044;-82
2022/01/10 12:49:12;;;;;;;37.63;18.90;;;4.70;99.90;;;;;;5079683;28;20098;-79
2022/01/10 12:51:42;;;;;;;31.03;15.30;;;4.70;99.90;;;;;;5079882;28;20459;-79